createdAt,value
2022-09-03T00:02:24.567Z,18.20
2022-09-03T00:05:07.512Z,18.20
2022-09-03T00:07:47.295Z,18.20
2022-09-03T00:10:41.362Z,18.10
2022-09-03T00:13:10.842Z,18.10
2022-09-03T00:15:40.737Z,18.00
2022-09-03T00:18:13.997Z,18.00
2022-09-03T00:20:51.032Z,18.00
2022-09-03T00:23:24.455Z,18.00
2022-09-03T00:25:58.129Z,17.90
2022-09-03T00:28:35.690Z,17.90
2022-09-03T00:31:18.500Z,17.90
2022-09-03T00:33:47.966Z,17.80
2022-09-03T00:36:26.085Z,17.80
2022-09-03T00:38:54.046Z,17.70
2022-09-03T00:41:41.590Z,17.70
2022-09-03T00:44:11.182Z,17.70
2022-09-03T00:46:47.024Z,17.70
2022-09-03T00:49:22.721Z,17.60
2022-09-03T00:52:04.376Z,17.60
2022-09-03T00:54:56.419Z,17.60
2022-09-03T00:57:51.105Z,17.60
2022-09-03T01:00:20.462Z,17.60
2022-09-03T01:03:12.942Z,17.50
2022-09-03T01:05:39.928Z,17.50
2022-09-03T01:08:49.215Z,17.50
2022-09-03T01:11:26.261Z,17.40
2022-09-03T01:14:32.015Z,17.40
2022-09-03T01:17:30.918Z,17.30
2022-09-03T01:20:03.911Z,17.30
2022-09-03T01:22:46.934Z,17.30
2022-09-03T01:25:35.426Z,17.20
2022-09-03T01:28:35.125Z,17.20
2022-09-03T01:31:26.845Z,17.20
2022-09-03T01:34:16.335Z,17.20
2022-09-03T01:37:15.739Z,17.20
2022-09-03T01:39:42.680Z,17.10
2022-09-03T01:42:44.505Z,17.10
2022-09-03T01:45:31.944Z,17.10
2022-09-03T01:48:40.265Z,17.10
2022-09-03T01:51:19.507Z,17.00
2022-09-03T01:54:07.592Z,17.00
2022-09-03T01:57:01.628Z,16.90
2022-09-03T01:59:38.126Z,16.90
2022-09-03T02:02:21.820Z,16.90
2022-09-03T02:05:09.258Z,16.90
2022-09-03T02:07:42.974Z,16.80
2022-09-03T02:10:15.465Z,16.80
2022-09-03T02:12:48.654Z,16.80
2022-09-03T02:15:20.280Z,16.80
2022-09-03T02:17:50.176Z,16.80
2022-09-03T02:20:20.826Z,16.70
2022-09-03T02:22:49.780Z,16.70
2022-09-03T02:25:19.545Z,16.70
2022-09-03T02:27:48.542Z,16.70
2022-09-03T02:30:15.645Z,16.70
2022-09-03T02:32:42.460Z,16.70
2022-09-03T02:35:12.057Z,16.70
2022-09-03T02:37:40.184Z,16.70
2022-09-03T02:40:10.446Z,16.70
2022-09-03T02:42:37.657Z,16.70
2022-09-03T02:45:25.522Z,16.70
2022-09-03T02:47:56.350Z,16.80
2022-09-03T02:50:24.215Z,16.70
2022-09-03T02:52:51.839Z,16.80
2022-09-03T02:55:20.047Z,16.80
2022-09-03T02:57:47.440Z,16.80
2022-09-03T03:00:14.931Z,16.80
2022-09-03T03:02:42.047Z,16.70
2022-09-03T03:05:13.504Z,16.70
2022-09-03T03:07:41.106Z,16.70
2022-09-03T03:10:10.780Z,16.70
2022-09-03T03:12:37.903Z,16.70
2022-09-03T03:15:05.056Z,16.70
2022-09-03T03:17:31.831Z,16.70
2022-09-03T03:19:58.726Z,16.70
2022-09-03T03:22:25.554Z,16.70
2022-09-03T03:24:52.872Z,16.60
2022-09-03T03:27:20.279Z,16.70
2022-09-03T03:29:47.105Z,16.60
2022-09-03T03:32:14.181Z,16.60
2022-09-03T03:34:40.989Z,16.60
2022-09-03T03:37:07.717Z,16.60
2022-09-03T03:39:34.481Z,16.60
2022-09-03T03:42:01.539Z,16.60
2022-09-03T03:44:29.303Z,16.60
2022-09-03T03:46:56.038Z,16.60
2022-09-03T03:49:22.877Z,16.60
2022-09-03T03:51:52.065Z,16.60
2022-09-03T03:54:19.625Z,16.70
2022-09-03T03:56:55.229Z,16.70
2022-09-03T03:59:22.861Z,16.70
2022-09-03T04:01:50.676Z,16.70
2022-09-03T04:04:17.793Z,16.70
2022-09-03T04:06:44.482Z,16.80
2022-09-03T04:09:11.282Z,16.80
2022-09-03T04:11:38.137Z,16.80
2022-09-03T04:14:05.002Z,16.80
2022-09-03T04:16:32.954Z,16.80
2022-09-03T04:19:00.246Z,16.80
2022-09-03T04:21:29.282Z,16.80
2022-09-03T04:23:58.333Z,16.80
2022-09-03T04:26:33.779Z,16.70
2022-09-03T04:29:03.894Z,16.70
2022-09-03T04:31:31.813Z,16.70
2022-09-03T04:33:58.730Z,16.70
2022-09-03T04:36:27.971Z,16.70
2022-09-03T04:38:56.233Z,16.70
2022-09-03T04:41:25.985Z,16.60
2022-09-03T04:43:54.418Z,16.60
2022-09-03T04:46:22.932Z,16.60
2022-09-03T04:48:54.878Z,16.60
2022-09-03T04:51:24.298Z,16.60
2022-09-03T04:54:00.164Z,16.50
2022-09-03T04:56:31.732Z,16.50
2022-09-03T04:59:07.375Z,16.50
2022-09-03T05:01:35.872Z,16.50
2022-09-03T05:04:02.987Z,16.40
2022-09-03T05:06:31.498Z,16.40
2022-09-03T05:09:01.263Z,16.40
2022-09-03T05:11:29.446Z,16.40
2022-09-03T05:13:58.501Z,16.40
2022-09-03T05:16:28.217Z,16.30
2022-09-03T05:18:57.040Z,16.30
2022-09-03T05:21:24.625Z,16.30
2022-09-03T05:23:52.860Z,16.30
2022-09-03T05:26:25.223Z,16.30
2022-09-03T05:28:57.190Z,16.30
2022-09-03T05:31:26.527Z,16.30
2022-09-03T05:33:58.589Z,16.20
2022-09-03T05:36:29.556Z,16.20
2022-09-03T05:38:56.473Z,16.20
2022-09-03T05:41:26.908Z,16.20
2022-09-03T05:43:56.017Z,16.20
2022-09-03T05:46:31.658Z,16.30
2022-09-03T05:49:03.491Z,16.20
2022-09-03T05:51:31.006Z,16.20
2022-09-03T05:53:58.720Z,16.30
2022-09-03T05:56:28.094Z,16.30
2022-09-03T05:58:58.069Z,16.30
2022-09-03T06:01:28.808Z,16.30
2022-09-03T06:04:05.630Z,16.30
2022-09-03T06:06:36.744Z,16.40
2022-09-03T06:09:15.924Z,16.40
2022-09-03T06:11:43.135Z,16.40
2022-09-03T06:14:12.070Z,16.50
2022-09-03T06:16:44.021Z,16.50
2022-09-03T06:19:11.909Z,16.50
2022-09-03T06:21:43.043Z,16.60
2022-09-03T06:24:14.926Z,16.60
2022-09-03T06:26:42.897Z,16.70
2022-09-03T06:29:10.690Z,16.70
2022-09-03T06:31:37.777Z,16.80
2022-09-03T06:34:04.740Z,16.80
2022-09-03T06:36:31.730Z,16.90
2022-09-03T06:38:58.716Z,16.90
2022-09-03T06:41:33.107Z,17.00
2022-09-03T06:44:04.852Z,17.10
2022-09-03T06:46:38.925Z,17.20
2022-09-03T06:49:05.828Z,17.30
2022-09-03T06:51:33.385Z,17.40
2022-09-03T06:54:08.115Z,17.60
2022-09-03T06:56:40.163Z,17.70
2022-09-03T06:59:12.843Z,17.80
2022-09-03T07:01:44.204Z,18.00
2022-09-03T07:04:13.356Z,18.10
2022-09-03T07:06:42.725Z,18.20
2022-09-03T07:09:11.909Z,18.40
2022-09-03T07:11:46.657Z,18.50
2022-09-03T07:14:14.933Z,18.60
2022-09-03T07:16:43.096Z,18.80
2022-09-03T07:19:10.260Z,19.00
2022-09-03T07:21:37.625Z,19.20
2022-09-03T07:24:06.147Z,19.40
2022-09-03T07:26:39.134Z,19.60
2022-09-03T07:29:11.589Z,19.80
2022-09-03T07:31:42.684Z,20.00
2022-09-03T07:34:11.564Z,20.40
2022-09-03T07:36:41.838Z,21.60
2022-09-03T07:39:09.898Z,22.90
2022-09-03T07:41:37.348Z,24.20
2022-09-03T07:44:08.366Z,25.30
2022-09-03T07:46:38.285Z,26.20
2022-09-03T07:49:06.335Z,27.10
2022-09-03T07:51:35.919Z,27.60
2022-09-03T07:54:06.943Z,28.20
2022-09-03T07:56:37.805Z,28.50
2022-09-03T07:59:05.542Z,28.60
2022-09-03T08:01:33.593Z,28.50
2022-09-03T08:04:01.874Z,28.60
2022-09-03T08:06:29.941Z,28.70
2022-09-03T08:09:05.284Z,28.90
2022-09-03T08:11:37.165Z,29.10
2022-09-03T08:14:07.545Z,29.20
2022-09-03T08:16:37.662Z,29.10
2022-09-03T08:19:05.538Z,29.00
2022-09-03T08:21:32.417Z,29.00
2022-09-03T08:24:05.729Z,29.00
2022-09-03T08:26:37.624Z,29.10
2022-09-03T08:29:05.614Z,29.10
2022-09-03T08:31:32.891Z,29.00
2022-09-03T08:34:06.805Z,28.90
2022-09-03T08:36:36.493Z,28.70
2022-09-03T08:39:09.912Z,28.40
2022-09-03T08:42:01.133Z,27.90
2022-09-03T08:44:56.821Z,27.60
2022-09-03T08:47:44.014Z,27.80
2022-09-03T08:50:17.427Z,27.90
2022-09-03T08:52:49.038Z,28.10
2022-09-03T08:55:29.450Z,28.20
2022-09-03T08:58:18.516Z,28.20
2022-09-03T09:01:13.790Z,28.30
2022-09-03T09:03:43.720Z,28.60
2022-09-03T09:06:40.163Z,29.00
2022-09-03T09:09:30.690Z,29.10
2022-09-03T09:23:41.417Z,28.80
2022-09-03T09:26:12.379Z,28.70
2022-09-03T09:28:39.505Z,28.80
2022-09-03T09:31:12.569Z,28.90
2022-09-03T09:33:39.599Z,29.00
2022-09-03T09:36:11.032Z,29.20
2022-09-03T09:38:39.379Z,29.20
2022-09-03T09:41:18.687Z,29.20
2022-09-03T09:43:47.982Z,29.00
2022-09-03T09:46:25.801Z,29.20
2022-09-03T09:48:58.803Z,29.40
2022-09-03T09:51:32.170Z,29.70
2022-09-03T09:54:13.453Z,29.90
2022-09-03T09:56:42.544Z,30.20
2022-09-03T09:59:11.437Z,30.20
2022-09-03T10:01:40.819Z,30.20
2022-09-03T10:04:22.178Z,30.20
2022-09-03T10:06:57.164Z,30.10
2022-09-03T10:09:31.339Z,30.10
2022-09-03T10:12:19.923Z,30.20
2022-09-03T10:15:20.825Z,30.50
2022-09-03T10:18:00.122Z,30.80
2022-09-03T10:20:53.753Z,31.20
2022-09-03T10:23:29.559Z,31.50
2022-09-03T10:26:15.240Z,31.70
2022-09-03T10:28:43.033Z,32.00
2022-09-03T10:31:32.000Z,32.10
2022-09-03T10:34:40.043Z,31.70
2022-09-03T10:37:18.555Z,31.30
2022-09-03T10:40:10.825Z,31.10
2022-09-03T10:43:16.633Z,30.80
2022-09-03T10:45:52.522Z,31.00
2022-09-03T10:48:38.541Z,31.20
2022-09-03T10:51:16.648Z,31.20
2022-09-03T10:54:20.839Z,31.10
2022-09-03T10:56:57.647Z,31.00
2022-09-03T10:59:51.362Z,30.90
2022-09-03T11:02:32.622Z,30.90
2022-09-03T11:05:05.742Z,31.00
2022-09-03T11:07:41.203Z,31.20
2022-09-03T11:10:17.256Z,31.40
2022-09-03T11:13:07.876Z,31.70
2022-09-03T11:15:52.119Z,32.00
2022-09-03T11:18:47.145Z,32.30
2022-09-03T11:21:17.145Z,32.50
2022-09-03T11:23:48.116Z,32.50
2022-09-03T11:26:19.323Z,32.30
2022-09-03T11:29:23.900Z,32.30
2022-09-03T11:31:50.855Z,32.50
2022-09-03T11:34:32.431Z,32.30
2022-09-03T11:37:27.412Z,32.30
2022-09-03T11:40:10.248Z,32.60
2022-09-03T11:42:41.013Z,32.70
2022-09-03T11:45:28.844Z,33.00
2022-09-03T11:47:56.381Z,33.00
2022-09-03T11:50:29.548Z,32.70
2022-09-03T11:53:28.268Z,32.40
2022-09-03T11:56:07.078Z,32.10
2022-09-03T11:58:37.483Z,32.10
2022-09-03T12:01:16.310Z,32.10
2022-09-03T12:03:43.250Z,32.10
2022-09-03T12:06:28.190Z,32.10
2022-09-03T12:09:17.649Z,32.10
2022-09-03T12:12:10.843Z,32.20
2022-09-03T12:14:47.485Z,32.30
2022-09-03T12:17:45.431Z,32.30
2022-09-03T12:20:14.854Z,32.20
2022-09-03T12:22:42.097Z,32.30
2022-09-03T12:25:12.301Z,32.50
2022-09-03T12:27:40.803Z,32.60
2022-09-03T12:30:17.746Z,32.60
2022-09-03T12:32:47.489Z,32.50
2022-09-03T12:38:06.543Z,32.30
2022-09-03T12:40:35.581Z,32.20
2022-09-03T12:43:49.042Z,32.40
2022-09-03T12:46:16.196Z,32.50
2022-09-03T12:52:05.806Z,32.90
2022-09-03T12:54:36.798Z,33.20
2022-09-03T12:57:04.644Z,33.50
2022-09-03T12:59:35.498Z,33.70
2022-09-03T13:02:14.132Z,33.90
2022-09-03T13:04:42.624Z,34.10
2022-09-03T13:07:14.510Z,34.20
2022-09-03T13:09:42.393Z,34.10
2022-09-03T13:12:22.525Z,33.70
2022-09-03T13:14:52.459Z,33.60
2022-09-03T13:17:38.138Z,33.60
2022-09-03T13:20:41.754Z,33.50
2022-09-03T13:23:43.895Z,33.40
2022-09-03T13:26:28.792Z,33.10
2022-09-03T13:29:20.877Z,32.90
2022-09-03T13:31:56.033Z,32.90
2022-09-03T13:34:25.664Z,33.00
2022-09-03T13:37:32.039Z,33.00
2022-09-03T13:40:03.256Z,33.10
2022-09-03T13:42:30.937Z,33.30
2022-09-03T13:45:07.895Z,33.50
2022-09-03T13:48:14.706Z,33.80
2022-09-03T13:51:06.374Z,33.90
2022-09-03T13:53:54.026Z,34.10
2022-09-03T13:56:36.777Z,34.20
2022-09-03T13:59:28.495Z,34.30
2022-09-03T14:02:16.979Z,34.40
2022-09-03T14:05:03.441Z,34.10
2022-09-03T14:08:01.285Z,34.10
2022-09-03T14:10:39.903Z,34.20
2022-09-03T14:13:14.337Z,34.10
2022-09-03T14:15:50.982Z,34.10
2022-09-03T14:18:42.045Z,34.10
2022-09-03T14:21:15.410Z,34.10
2022-09-03T14:23:51.383Z,34.10
2022-09-03T14:26:48.401Z,34.10
2022-09-03T14:29:17.312Z,33.80
2022-09-03T14:32:14.299Z,33.70
2022-09-03T14:34:47.083Z,33.60
2022-09-03T14:37:31.059Z,33.50
2022-09-03T14:40:31.641Z,33.50
2022-09-03T14:43:27.737Z,33.50
2022-09-03T14:46:17.593Z,33.30
2022-09-03T14:49:05.673Z,33.10
2022-09-03T14:51:57.718Z,32.90
2022-09-03T14:54:42.346Z,32.80
2022-09-03T14:57:27.212Z,32.80
2022-09-03T15:00:18.397Z,32.90
2022-09-03T15:03:24.746Z,33.00
2022-09-03T15:06:09.778Z,33.20
2022-09-03T15:08:58.225Z,33.20
2022-09-03T15:11:29.799Z,33.40
2022-09-03T15:14:27.835Z,33.40
2022-09-03T15:17:31.813Z,33.50
2022-09-03T15:20:04.784Z,33.50
2022-09-03T15:22:59.254Z,33.50
2022-09-03T15:26:03.866Z,33.50
2022-09-03T15:28:55.578Z,33.30
2022-09-03T15:31:42.021Z,33.00
2022-09-03T15:34:15.649Z,33.00
2022-09-03T15:36:54.100Z,33.00
2022-09-03T15:39:27.927Z,33.10
2022-09-03T15:42:01.714Z,33.10
2022-09-03T15:44:38.247Z,33.10
2022-09-03T15:47:28.820Z,33.00
2022-09-03T15:50:10.914Z,32.90
2022-09-03T15:52:49.658Z,32.80
2022-09-03T15:55:31.937Z,32.70
2022-09-03T15:58:10.643Z,32.70
2022-09-03T16:01:18.582Z,32.60
2022-09-03T16:04:03.426Z,32.40
2022-09-03T16:07:16.763Z,32.10
2022-09-03T16:10:22.684Z,31.90
2022-09-03T16:13:06.010Z,31.80
2022-09-03T16:16:01.296Z,31.60
2022-09-03T16:18:39.926Z,31.40
2022-09-03T16:21:21.953Z,31.20
2022-09-03T16:24:11.867Z,31.10
2022-09-03T16:27:16.208Z,31.00
2022-09-03T16:29:58.947Z,30.80
2022-09-03T16:32:47.831Z,30.60
2022-09-03T16:35:38.849Z,30.60
2022-09-03T16:38:23.191Z,30.50
2022-09-03T16:41:02.259Z,30.40
2022-09-03T16:43:58.283Z,30.30
2022-09-03T16:47:02.302Z,30.30
2022-09-03T16:49:58.963Z,30.30
2022-09-03T16:52:53.192Z,30.20
2022-09-03T16:55:43.763Z,30.10
2022-09-03T16:59:01.369Z,30.00
2022-09-03T17:01:55.833Z,29.90
2022-09-03T17:04:41.481Z,29.80
2022-09-03T17:07:27.198Z,29.80
2022-09-03T17:10:23.051Z,29.60
2022-09-03T17:13:01.738Z,29.50
2022-09-03T17:15:55.936Z,29.40
2022-09-03T17:18:58.046Z,29.30
2022-09-03T17:22:00.422Z,29.10
2022-09-03T17:25:06.859Z,29.00
2022-09-03T17:27:49.596Z,28.90
2022-09-03T17:30:33.009Z,28.80
2022-09-03T17:33:27.288Z,28.70
2022-09-03T17:36:12.618Z,28.50
2022-09-03T17:39:18.194Z,28.40
2022-09-03T17:41:56.389Z,28.30
2022-09-03T17:44:59.865Z,28.20
2022-09-03T17:47:56.528Z,28.10
2022-09-03T17:50:43.719Z,27.90
2022-09-03T17:53:39.628Z,27.80
2022-09-03T17:56:20.881Z,27.60
2022-09-03T17:59:12.398Z,27.50
2022-09-03T18:02:02.903Z,27.40
2022-09-03T18:04:42.071Z,27.30
2022-09-03T18:07:26.435Z,27.10
2022-09-03T18:10:03.697Z,27.10
2022-09-03T18:12:57.951Z,26.90
2022-09-03T18:15:57.414Z,26.80
2022-09-03T18:18:32.156Z,26.70
2022-09-03T18:21:25.562Z,26.60
2022-09-03T18:24:40.276Z,26.50
2022-09-03T18:27:34.433Z,26.30
2022-09-03T18:30:26.697Z,26.20
2022-09-03T18:33:12.815Z,26.00
2022-09-03T18:35:58.355Z,25.90
2022-09-03T18:38:50.614Z,25.70
2022-09-03T18:41:54.514Z,25.60
2022-09-03T18:45:22.936Z,25.40
2022-09-03T18:48:21.081Z,25.30
2022-09-03T18:51:25.483Z,25.20
2022-09-03T18:54:25.811Z,25.10
2022-09-03T18:57:12.763Z,24.90
2022-09-03T19:00:10.052Z,24.80
2022-09-03T19:03:19.618Z,24.70
2022-09-03T19:06:38.169Z,24.60
2022-09-03T19:09:39.943Z,24.60
2022-09-03T19:12:28.442Z,24.50
2022-09-03T19:15:42.474Z,24.40
2022-09-03T19:18:32.777Z,24.30
2022-09-03T19:21:40.635Z,24.30
2022-09-03T19:24:26.299Z,24.20
2022-09-03T19:27:54.230Z,24.10
2022-09-03T19:31:09.176Z,24.10
2022-09-03T19:34:04.323Z,24.00
2022-09-03T19:37:00.684Z,23.90
2022-09-03T19:40:27.249Z,23.90
2022-09-03T19:43:36.971Z,23.80
2022-09-03T19:46:56.243Z,23.80
2022-09-03T19:49:51.529Z,23.70
2022-09-03T19:53:03.927Z,23.60
2022-09-03T19:55:53.364Z,23.60
2022-09-03T19:58:44.380Z,23.50
2022-09-03T20:01:31.863Z,23.40
2022-09-03T20:04:23.184Z,23.30
2022-09-03T20:07:08.731Z,23.30
2022-09-03T20:09:58.566Z,23.20
2022-09-03T20:12:29.829Z,23.20
2022-09-03T20:14:56.746Z,23.10
2022-09-03T20:17:40.188Z,23.10
2022-09-03T20:20:15.239Z,23.00
2022-09-03T20:22:52.238Z,23.00
2022-09-03T20:25:50.794Z,23.00
2022-09-03T20:28:26.546Z,22.90
2022-09-03T20:31:07.932Z,22.80
2022-09-03T20:33:46.026Z,22.80
2022-09-03T20:36:22.015Z,22.80
2022-09-03T20:39:27.486Z,22.70
2022-09-03T20:42:12.579Z,22.60
2022-09-03T20:45:10.260Z,22.60
2022-09-03T20:48:03.607Z,22.50
2022-09-03T20:50:45.930Z,22.50
2022-09-03T20:53:23.146Z,22.40
2022-09-03T20:55:58.681Z,22.40
2022-09-03T20:58:48.722Z,22.40
2022-09-03T21:01:28.459Z,22.30
2022-09-03T21:04:04.321Z,22.30
2022-09-03T21:06:50.104Z,22.30
2022-09-03T21:09:24.054Z,22.20
2022-09-03T21:12:20.453Z,22.20
2022-09-03T21:14:58.645Z,22.10
2022-09-03T21:17:37.898Z,22.10
2022-09-03T21:20:43.048Z,22.10
2022-09-03T21:23:25.339Z,22.00
2022-09-03T21:26:01.544Z,22.00
2022-09-03T21:28:45.428Z,21.90
2022-09-03T21:31:21.923Z,21.90
2022-09-03T21:33:51.220Z,21.90
2022-09-03T21:36:30.576Z,21.90
2022-09-03T21:39:22.672Z,21.90
2022-09-03T21:42:22.523Z,21.80
2022-09-03T21:45:12.859Z,21.80
2022-09-03T21:47:47.809Z,21.70
2022-09-03T21:50:25.773Z,21.70
2022-09-03T21:53:02.394Z,21.70
2022-09-03T21:56:04.931Z,21.60
2022-09-03T21:58:45.027Z,21.60
2022-09-03T22:01:20.608Z,21.50
2022-09-03T22:03:47.380Z,21.50
2022-09-03T22:06:25.183Z,21.50
2022-09-03T22:09:04.202Z,21.50
2022-09-03T22:12:00.453Z,21.40
2022-09-03T22:14:36.558Z,21.40
2022-09-03T22:17:24.242Z,21.30
2022-09-03T22:19:51.598Z,21.20
2022-09-03T22:22:44.045Z,21.20
2022-09-03T22:25:23.423Z,21.20
2022-09-03T22:28:03.372Z,21.10
2022-09-03T22:30:55.420Z,21.00
2022-09-03T22:33:35.833Z,21.00
2022-09-03T22:36:15.167Z,20.90
2022-09-03T22:39:06.519Z,20.90
2022-09-03T22:42:01.133Z,20.90
2022-09-03T22:44:48.109Z,20.80
2022-09-03T22:47:37.449Z,20.70
2022-09-03T22:50:29.517Z,20.70
2022-09-03T22:53:24.016Z,20.60
2022-09-03T22:56:15.713Z,20.50
2022-09-03T22:58:49.676Z,20.50
2022-09-03T23:01:34.972Z,20.40
2022-09-03T23:04:13.228Z,20.40
2022-09-03T23:06:47.924Z,20.40
2022-09-03T23:09:21.119Z,20.40
2022-09-03T23:11:52.838Z,20.40
2022-09-03T23:14:28.712Z,20.40
2022-09-03T23:17:04.362Z,20.40
2022-09-03T23:19:45.463Z,20.40
2022-09-03T23:22:31.080Z,20.40
2022-09-03T23:25:06.042Z,20.40
2022-09-03T23:27:41.996Z,20.30
2022-09-03T23:30:09.158Z,20.30
2022-09-03T23:32:36.018Z,20.30
2022-09-03T23:35:11.050Z,20.30
2022-09-03T23:37:48.890Z,20.30
2022-09-03T23:40:36.520Z,20.20
2022-09-03T23:43:12.053Z,20.20
2022-09-03T23:46:09.595Z,20.20
2022-09-03T23:48:48.633Z,20.10
2022-09-03T23:51:22.900Z,20.10
2022-09-03T23:54:17.410Z,20.10
2022-09-03T23:56:55.962Z,20.00
2022-09-03T23:59:59.254Z,20.00
